createdAt,value
2023-05-05T00:00:29.804Z,1013.07
2023-05-05T00:01:29.969Z,1013.08
2023-05-05T00:02:29.862Z,1013.07
2023-05-05T00:03:29.845Z,1013.02
2023-05-05T00:04:29.755Z,1013.01
2023-05-05T00:05:29.764Z,1013.04
2023-05-05T00:06:29.693Z,1013.03
2023-05-05T00:07:29.724Z,1013.05
2023-05-05T00:08:29.713Z,1013.02
2023-05-05T00:09:29.725Z,1013.00
2023-05-05T00:10:29.665Z,1013.04
2023-05-05T00:11:29.628Z,1012.98
2023-05-05T00:12:29.659Z,1012.98
2023-05-05T00:13:29.630Z,1012.95
2023-05-05T00:14:29.638Z,1012.97
2023-05-05T00:15:29.634Z,1012.97
2023-05-05T00:16:29.641Z,1013.00
2023-05-05T00:17:29.590Z,1012.98
2023-05-05T00:18:29.601Z,1012.94
2023-05-05T00:19:29.567Z,1012.95
2023-05-05T00:20:29.544Z,1012.99
2023-05-05T00:21:29.499Z,1013.00
2023-05-05T00:22:29.512Z,1012.98
2023-05-05T00:23:29.462Z,1012.98
2023-05-05T00:24:29.472Z,1012.97
2023-05-05T00:25:29.482Z,1012.94
2023-05-05T00:26:29.434Z,1012.93
2023-05-05T00:27:29.436Z,1012.92
2023-05-05T00:28:29.419Z,1012.95
2023-05-05T00:29:29.409Z,1012.93
2023-05-05T00:30:29.430Z,1012.94
2023-05-05T00:31:29.368Z,1012.95
2023-05-05T00:32:29.393Z,1012.94
2023-05-05T00:33:29.358Z,1012.95
2023-05-05T00:34:29.380Z,1012.94
2023-05-05T00:35:29.326Z,1012.92
2023-05-05T00:36:29.356Z,1012.93
2023-05-05T00:37:29.287Z,1012.89
2023-05-05T00:38:29.285Z,1012.88
2023-05-05T00:39:29.258Z,1012.88
2023-05-05T00:40:29.277Z,1012.83
2023-05-05T00:41:29.258Z,1012.87
2023-05-05T00:42:29.239Z,1012.87
2023-05-05T00:43:29.200Z,1012.86
2023-05-05T00:44:29.217Z,1012.86
2023-05-05T00:45:29.184Z,1012.85
2023-05-05T00:46:29.260Z,1012.82
2023-05-05T00:47:29.196Z,1012.81
2023-05-05T00:48:29.133Z,1012.80
2023-05-05T00:49:29.179Z,1012.81
2023-05-05T00:50:29.162Z,1012.81
2023-05-05T00:51:29.096Z,1012.80
2023-05-05T00:52:29.072Z,1012.83
2023-05-05T00:53:29.119Z,1012.86
2023-05-05T00:54:29.069Z,1012.87
2023-05-05T00:55:29.122Z,1012.91
2023-05-05T00:56:29.090Z,1012.88
2023-05-05T00:57:29.092Z,1012.88
2023-05-05T00:58:28.991Z,1012.89
2023-05-05T00:59:29.009Z,1012.88
2023-05-05T01:00:28.963Z,1012.86
2023-05-05T01:01:29.006Z,1012.86
2023-05-05T01:02:28.995Z,1012.88
2023-05-05T01:03:28.968Z,1012.87
2023-05-05T01:04:28.928Z,1012.87
2023-05-05T01:05:28.915Z,1012.91
2023-05-05T01:06:28.906Z,1012.91
2023-05-05T01:07:28.882Z,1012.93
2023-05-05T01:08:28.871Z,1012.92
2023-05-05T01:09:28.852Z,1012.90
2023-05-05T01:10:28.860Z,1012.89
2023-05-05T01:11:28.847Z,1012.91
2023-05-05T01:12:28.839Z,1012.91
2023-05-05T01:13:28.823Z,1012.91
2023-05-05T01:14:28.798Z,1012.93
2023-05-05T01:15:28.775Z,1012.89
2023-05-05T01:16:28.808Z,1012.88
2023-05-05T01:17:28.871Z,1012.89
2023-05-05T01:18:28.743Z,1012.87
2023-05-05T01:19:28.738Z,1012.89
2023-05-05T01:20:28.707Z,1012.92
2023-05-05T01:21:28.682Z,1012.92
2023-05-05T01:22:28.664Z,1012.96
2023-05-05T01:23:28.684Z,1012.99
2023-05-05T01:24:28.660Z,1013.02
2023-05-05T01:25:28.655Z,1013.00
2023-05-05T01:26:28.652Z,1013.04
2023-05-05T01:27:28.601Z,1013.02
2023-05-05T01:28:28.597Z,1013.01
2023-05-05T01:29:28.587Z,1013.00
2023-05-05T01:30:28.557Z,1013.01
2023-05-05T01:31:28.558Z,1012.97
2023-05-05T01:32:28.635Z,1012.99
2023-05-05T01:33:28.543Z,1013.01
2023-05-05T01:34:28.526Z,1013.02
2023-05-05T01:35:28.537Z,1013.03
2023-05-05T01:36:28.497Z,1013.09
2023-05-05T01:37:28.476Z,1013.12
2023-05-05T01:38:28.465Z,1013.09
2023-05-05T01:39:28.482Z,1013.12
2023-05-05T01:40:28.472Z,1013.06
2023-05-05T01:41:28.447Z,1013.10
2023-05-05T01:42:28.402Z,1013.04
2023-05-05T01:43:28.424Z,1013.02
2023-05-05T01:44:28.366Z,1013.01
2023-05-05T01:45:28.479Z,1013.03
2023-05-05T01:46:28.371Z,1013.07
2023-05-05T01:47:28.383Z,1013.09
2023-05-05T01:48:28.321Z,1013.10
2023-05-05T01:49:28.315Z,1013.12
2023-05-05T01:50:28.309Z,1013.11
2023-05-05T01:51:28.332Z,1013.15
2023-05-05T01:52:28.258Z,1013.15
2023-05-05T01:53:28.252Z,1013.12
2023-05-05T01:54:28.256Z,1013.15
2023-05-05T01:55:28.246Z,1013.16
2023-05-05T01:56:28.240Z,1013.13
2023-05-05T01:57:28.238Z,1013.14
2023-05-05T01:58:28.197Z,1013.18
2023-05-05T01:59:28.170Z,1013.18
2023-05-05T02:00:28.174Z,1013.18
2023-05-05T02:01:28.195Z,1013.17
2023-05-05T02:02:28.235Z,1013.12
2023-05-05T02:03:28.127Z,1013.09
2023-05-05T02:04:28.125Z,1013.11
2023-05-05T02:05:28.076Z,1013.16
2023-05-05T02:06:28.082Z,1013.13
2023-05-05T02:07:28.097Z,1013.20
2023-05-05T02:08:28.040Z,1013.20
2023-05-05T02:09:28.039Z,1013.20
2023-05-05T02:10:28.014Z,1013.25
2023-05-05T02:11:28.003Z,1013.23
2023-05-05T02:12:27.979Z,1013.23
2023-05-05T02:13:28.158Z,1013.24
2023-05-05T02:14:27.952Z,1013.33
2023-05-05T02:15:27.997Z,1013.35
2023-05-05T02:16:27.975Z,1013.37
2023-05-05T02:17:27.946Z,1013.37
2023-05-05T02:18:27.907Z,1013.42
2023-05-05T02:19:27.900Z,1013.40
2023-05-05T02:20:27.905Z,1013.40
2023-05-05T02:21:27.868Z,1013.40
2023-05-05T02:22:27.988Z,1013.42
2023-05-05T02:23:27.858Z,1013.43
2023-05-05T02:24:27.832Z,1013.44
2023-05-05T02:25:27.843Z,1013.44
2023-05-05T02:26:27.813Z,1013.45
2023-05-05T02:27:27.778Z,1013.43
2023-05-05T02:28:27.798Z,1013.42
2023-05-05T02:29:27.918Z,1013.46
2023-05-05T02:30:27.741Z,1013.40
2023-05-05T02:31:27.822Z,1013.38
2023-05-05T02:32:27.778Z,1013.46
2023-05-05T02:33:27.748Z,1013.48
2023-05-05T02:34:27.751Z,1013.43
2023-05-05T02:35:27.702Z,1013.45
2023-05-05T02:36:27.832Z,1013.42
2023-05-05T02:37:27.733Z,1013.44
2023-05-05T02:38:27.638Z,1013.41
2023-05-05T02:39:27.635Z,1013.46
2023-05-05T02:40:27.622Z,1013.51
2023-05-05T02:41:27.609Z,1013.52
2023-05-05T02:42:27.599Z,1013.53
2023-05-05T02:43:27.603Z,1013.50
2023-05-05T02:44:27.591Z,1013.57
2023-05-05T02:45:27.562Z,1013.58
2023-05-05T02:46:27.564Z,1013.62
2023-05-05T02:47:27.599Z,1013.65
2023-05-05T02:48:27.500Z,1013.62
2023-05-05T02:49:27.512Z,1013.62
2023-05-05T02:50:27.498Z,1013.59
2023-05-05T02:51:27.470Z,1013.58
2023-05-05T02:52:27.459Z,1013.58
2023-05-05T02:53:27.462Z,1013.60
2023-05-05T02:54:27.436Z,1013.66
2023-05-05T02:55:27.451Z,1013.65
2023-05-05T02:56:27.404Z,1013.66
2023-05-05T02:57:27.385Z,1013.68
2023-05-05T02:58:27.378Z,1013.71
2023-05-05T02:59:27.358Z,1013.70
2023-05-05T03:00:27.364Z,1013.71
2023-05-05T03:01:27.380Z,1013.70
2023-05-05T03:02:27.413Z,1013.71
2023-05-05T03:03:27.385Z,1013.73
2023-05-05T03:04:27.292Z,1013.73
2023-05-05T03:05:27.363Z,1013.72
2023-05-05T03:06:27.272Z,1013.73
2023-05-05T03:07:27.251Z,1013.72
2023-05-05T03:08:27.219Z,1013.74
2023-05-05T03:09:27.304Z,1013.77
2023-05-05T03:10:27.218Z,1013.75
2023-05-05T03:11:27.217Z,1013.76
2023-05-05T03:12:27.185Z,1013.74
2023-05-05T03:13:27.245Z,1013.74
2023-05-05T03:14:27.150Z,1013.75
2023-05-05T03:15:27.207Z,1013.76
2023-05-05T03:16:27.172Z,1013.69
2023-05-05T03:17:27.106Z,1013.66
2023-05-05T03:18:27.095Z,1013.65
2023-05-05T03:19:27.095Z,1013.61
2023-05-05T03:20:27.084Z,1013.64
2023-05-05T03:21:27.089Z,1013.62
2023-05-05T03:22:27.069Z,1013.64
2023-05-05T03:23:27.038Z,1013.65
2023-05-05T03:24:27.030Z,1013.65
2023-05-05T03:25:26.987Z,1013.69
2023-05-05T03:26:26.976Z,1013.67
2023-05-05T03:27:27.087Z,1013.67
2023-05-05T03:28:26.968Z,1013.71
2023-05-05T03:29:26.973Z,1013.71
2023-05-05T03:30:26.932Z,1013.73
2023-05-05T03:31:26.949Z,1013.73
2023-05-05T03:32:26.956Z,1013.75
2023-05-05T03:33:26.882Z,1013.74
2023-05-05T03:34:26.915Z,1013.76
2023-05-05T03:35:26.867Z,1013.74
2023-05-05T03:36:29.001Z,1013.76
2023-05-05T03:37:26.873Z,1013.79
2023-05-05T03:38:26.825Z,1013.76
2023-05-05T03:39:26.824Z,1013.78
2023-05-05T03:40:36.250Z,1013.73
2023-05-05T03:41:27.823Z,1013.76
2023-05-05T03:42:26.769Z,1013.74
2023-05-05T03:43:26.775Z,1013.76
2023-05-05T03:44:26.747Z,1013.72
2023-05-05T03:45:26.717Z,1013.74
2023-05-05T03:46:26.715Z,1013.74
2023-05-05T03:47:26.731Z,1013.72
2023-05-05T03:48:26.684Z,1013.69
2023-05-05T03:49:26.700Z,1013.68
2023-05-05T03:50:26.673Z,1013.70
2023-05-05T03:51:26.641Z,1013.68
2023-05-05T03:52:26.610Z,1013.72
2023-05-05T03:53:26.652Z,1013.73
2023-05-05T03:54:26.618Z,1013.75
2023-05-05T03:55:26.588Z,1013.71
2023-05-05T03:56:26.577Z,1013.74
2023-05-05T03:57:27.583Z,1013.81
2023-05-05T03:58:26.627Z,1013.82
2023-05-05T03:59:26.556Z,1013.79
2023-05-05T04:00:26.533Z,1013.80
2023-05-05T04:01:26.529Z,1013.81
2023-05-05T04:02:26.592Z,1013.80
2023-05-05T04:03:26.566Z,1013.84
2023-05-05T04:04:26.553Z,1013.81
2023-05-05T04:05:26.502Z,1013.85
2023-05-05T04:06:26.465Z,1013.84
2023-05-05T04:07:26.441Z,1013.83
2023-05-05T04:08:26.460Z,1013.83
2023-05-05T04:09:26.398Z,1013.86
2023-05-05T04:10:26.451Z,1013.87
2023-05-05T04:11:26.393Z,1013.86
2023-05-05T04:12:26.368Z,1013.84
2023-05-05T04:13:26.350Z,1013.84
2023-05-05T04:14:26.340Z,1013.83
2023-05-05T04:15:26.323Z,1013.81
2023-05-05T04:16:26.457Z,1013.82
2023-05-05T04:17:26.388Z,1013.83
2023-05-05T04:18:26.273Z,1013.83
2023-05-05T04:19:26.260Z,1013.84
2023-05-05T04:20:26.263Z,1013.88
2023-05-05T04:21:26.283Z,1013.91
2023-05-05T04:22:26.239Z,1013.91
2023-05-05T04:23:26.235Z,1013.94
2023-05-05T04:24:26.221Z,1014.00
2023-05-05T04:25:26.203Z,1014.00
2023-05-05T04:26:26.199Z,1014.04
2023-05-05T04:27:26.241Z,1014.05
2023-05-05T04:28:26.164Z,1014.10
2023-05-05T04:29:26.126Z,1014.16
2023-05-05T04:30:26.170Z,1014.18
2023-05-05T04:31:26.126Z,1014.18
2023-05-05T04:32:26.145Z,1014.23
2023-05-05T04:33:26.099Z,1014.24
2023-05-05T04:34:26.068Z,1014.25
2023-05-05T04:35:26.035Z,1014.25
2023-05-05T04:36:26.062Z,1014.22
2023-05-05T04:37:26.053Z,1014.32
2023-05-05T04:38:26.043Z,1014.32
2023-05-05T04:39:26.029Z,1014.27
2023-05-05T04:40:25.996Z,1014.26
2023-05-05T04:41:26.814Z,1014.32
2023-05-05T04:42:25.970Z,1014.28
2023-05-05T04:43:25.953Z,1014.29
2023-05-05T04:44:26.000Z,1014.33
2023-05-05T04:45:25.907Z,1014.31
2023-05-05T04:46:25.927Z,1014.30
2023-05-05T04:47:25.912Z,1014.28
2023-05-05T04:48:25.872Z,1014.28
2023-05-05T04:49:25.886Z,1014.26
2023-05-05T04:50:25.831Z,1014.23
2023-05-05T04:51:25.985Z,1014.29
2023-05-05T04:52:25.821Z,1014.29
2023-05-05T04:53:25.865Z,1014.27
2023-05-05T04:54:25.804Z,1014.26
2023-05-05T04:55:25.768Z,1014.28
2023-05-05T04:56:25.763Z,1014.32
2023-05-05T04:57:25.755Z,1014.35
2023-05-05T04:58:25.733Z,1014.34
2023-05-05T04:59:25.706Z,1014.38
2023-05-05T05:00:25.739Z,1014.41
2023-05-05T05:01:25.766Z,1014.40
2023-05-05T05:02:25.754Z,1014.42
2023-05-05T05:03:25.779Z,1014.44
2023-05-05T05:04:25.656Z,1014.50
2023-05-05T05:05:25.644Z,1014.51
2023-05-05T05:06:25.607Z,1014.47
2023-05-05T05:07:25.601Z,1014.45
2023-05-05T05:08:25.610Z,1014.48
2023-05-05T05:09:25.615Z,1014.46
2023-05-05T05:10:25.568Z,1014.48
2023-05-05T05:11:25.580Z,1014.50
2023-05-05T05:12:25.558Z,1014.51
2023-05-05T05:13:25.634Z,1014.54
2023-05-05T05:14:25.569Z,1014.53
2023-05-05T05:15:25.559Z,1014.54
2023-05-05T05:16:25.551Z,1014.55
2023-05-05T05:17:25.495Z,1014.54
2023-05-05T05:18:25.463Z,1014.54
2023-05-05T05:19:25.437Z,1014.52
2023-05-05T05:20:25.448Z,1014.48
2023-05-05T05:21:25.424Z,1014.51
2023-05-05T05:22:25.425Z,1014.53
2023-05-05T05:23:25.422Z,1014.51
2023-05-05T05:24:25.417Z,1014.55
2023-05-05T05:25:25.377Z,1014.53
2023-05-05T05:26:25.377Z,1014.57
2023-05-05T05:27:25.347Z,1014.60
2023-05-05T05:28:25.343Z,1014.58
2023-05-05T05:29:25.340Z,1014.60
2023-05-05T05:30:25.307Z,1014.61
2023-05-05T05:31:25.301Z,1014.62
2023-05-05T05:32:25.330Z,1014.61
2023-05-05T05:33:25.260Z,1014.63
2023-05-05T05:34:25.282Z,1014.66
2023-05-05T05:35:25.213Z,1014.66
2023-05-05T05:36:25.216Z,1014.65
2023-05-05T05:37:25.207Z,1014.67
2023-05-05T05:38:25.209Z,1014.68
2023-05-05T05:39:25.174Z,1014.67
2023-05-05T05:40:25.169Z,1014.64
2023-05-05T05:41:25.236Z,1014.65
2023-05-05T05:42:25.152Z,1014.69
2023-05-05T05:43:25.129Z,1014.70
2023-05-05T05:44:25.148Z,1014.67
2023-05-05T05:45:25.092Z,1014.70
2023-05-05T05:46:25.142Z,1014.69
2023-05-05T05:47:25.203Z,1014.69
2023-05-05T05:48:25.072Z,1014.67
2023-05-05T05:49:25.055Z,1014.67
2023-05-05T05:50:25.006Z,1014.65
2023-05-05T05:51:25.004Z,1014.70
2023-05-05T05:52:25.008Z,1014.69
2023-05-05T05:53:24.980Z,1014.73
2023-05-05T05:54:24.977Z,1014.75
2023-05-05T05:55:24.945Z,1014.70
2023-05-05T05:56:24.930Z,1014.71
2023-05-05T05:57:24.961Z,1014.73
2023-05-05T05:58:24.930Z,1014.75
2023-05-05T05:59:24.905Z,1014.72
2023-05-05T06:00:24.920Z,1014.76
2023-05-05T06:01:24.901Z,1014.74
2023-05-05T06:02:24.948Z,1014.75
2023-05-05T06:03:24.970Z,1014.73
2023-05-05T06:04:24.868Z,1014.71
2023-05-05T06:05:24.908Z,1014.72
2023-05-05T06:06:24.814Z,1014.70
2023-05-05T06:07:24.911Z,1014.69
2023-05-05T06:08:25.227Z,1014.66
2023-05-05T06:09:24.814Z,1014.66
2023-05-05T06:10:27.596Z,1014.65
2023-05-05T06:11:24.745Z,1014.64
2023-05-05T06:12:24.728Z,1014.62
2023-05-05T06:13:24.710Z,1014.69
2023-05-05T06:14:24.740Z,1014.65
2023-05-05T06:15:24.673Z,1014.67
2023-05-05T06:16:24.862Z,1014.64
2023-05-05T06:17:24.710Z,1014.62
2023-05-05T06:18:24.693Z,1014.58
2023-05-05T06:19:24.631Z,1014.60
2023-05-05T06:20:24.624Z,1014.60
2023-05-05T06:21:24.617Z,1014.61
2023-05-05T06:22:24.611Z,1014.60
2023-05-05T06:23:24.638Z,1014.62
2023-05-05T06:24:24.616Z,1014.60
2023-05-05T06:25:24.613Z,1014.61
2023-05-05T06:26:24.632Z,1014.60
2023-05-05T06:27:24.583Z,1014.61
2023-05-05T06:28:24.544Z,1014.67
2023-05-05T06:29:24.551Z,1014.69
2023-05-05T06:30:24.522Z,1014.69
2023-05-05T06:31:24.527Z,1014.67
2023-05-05T06:32:24.548Z,1014.70
2023-05-05T06:33:24.483Z,1014.71
2023-05-05T06:34:24.474Z,1014.68
2023-05-05T06:35:24.429Z,1014.67
2023-05-05T06:36:24.519Z,1014.70
2023-05-05T06:37:24.397Z,1014.66
2023-05-05T06:38:24.398Z,1014.63
2023-05-05T06:39:24.373Z,1014.58
2023-05-05T06:40:24.366Z,1014.52
2023-05-05T06:41:24.354Z,1014.56
2023-05-05T06:42:24.309Z,1014.56
2023-05-05T06:43:24.370Z,1014.53
2023-05-05T06:44:24.298Z,1014.56
2023-05-05T06:45:24.335Z,1014.52
2023-05-05T06:46:24.374Z,1014.58
2023-05-05T06:47:24.343Z,1014.57
2023-05-05T06:48:24.270Z,1014.58
2023-05-05T06:49:24.244Z,1014.58
2023-05-05T06:50:24.194Z,1014.63
2023-05-05T06:51:24.236Z,1014.68
2023-05-05T06:52:24.259Z,1014.70
2023-05-05T06:53:24.192Z,1014.74
2023-05-05T06:54:24.153Z,1014.75
2023-05-05T06:55:24.228Z,1014.72
2023-05-05T06:56:24.118Z,1014.79
2023-05-05T06:57:24.134Z,1014.81
2023-05-05T06:58:24.095Z,1014.81
2023-05-05T06:59:24.112Z,1014.80
2023-05-05T07:00:24.086Z,1014.83
2023-05-05T07:01:24.109Z,1014.83
2023-05-05T07:02:26.562Z,1014.89
2023-05-05T07:03:24.072Z,1014.87
2023-05-05T07:04:24.013Z,1014.87
2023-05-05T07:05:24.036Z,1014.94
2023-05-05T07:06:23.970Z,1014.92
2023-05-05T07:07:23.991Z,1014.94
2023-05-05T07:08:23.952Z,1014.98
2023-05-05T07:09:24.002Z,1014.99
2023-05-05T07:10:23.941Z,1015.00
2023-05-05T07:11:24.033Z,1015.01
2023-05-05T07:12:23.896Z,1014.94
2023-05-05T07:13:23.913Z,1014.99
2023-05-05T07:14:24.606Z,1014.96
2023-05-05T07:15:29.373Z,1015.00
2023-05-05T07:16:24.896Z,1014.95
2023-05-05T07:17:23.844Z,1014.97
2023-05-05T07:18:23.909Z,1014.98
2023-05-05T07:19:23.808Z,1015.04
2023-05-05T07:20:24.273Z,1015.03
2023-05-05T07:21:23.833Z,1015.04
2023-05-05T07:22:23.858Z,1015.00
2023-05-05T07:23:23.773Z,1015.04
2023-05-05T07:24:23.740Z,1015.04
2023-05-05T07:25:23.751Z,1015.02
2023-05-05T07:26:23.725Z,1015.06
2023-05-05T07:27:23.728Z,1015.08
2023-05-05T07:28:23.698Z,1015.10
2023-05-05T07:29:23.746Z,1015.11
2023-05-05T07:30:23.818Z,1015.16
2023-05-05T07:31:23.672Z,1015.18
2023-05-05T07:32:23.746Z,1015.16
2023-05-05T07:33:23.616Z,1015.18
2023-05-05T07:34:23.577Z,1015.12
2023-05-05T07:35:23.634Z,1015.23
2023-05-05T07:36:23.662Z,1015.23
2023-05-05T07:37:23.569Z,1015.20
2023-05-05T07:38:23.581Z,1015.24
2023-05-05T07:39:23.568Z,1015.20
2023-05-05T07:40:23.554Z,1015.23
2023-05-05T07:41:23.544Z,1015.23
2023-05-05T07:42:23.502Z,1015.24
2023-05-05T07:43:23.473Z,1015.30
2023-05-05T07:44:23.469Z,1015.28
2023-05-05T07:45:23.513Z,1015.29
2023-05-05T07:46:23.506Z,1015.26
2023-05-05T07:47:23.463Z,1015.25
2023-05-05T07:48:23.469Z,1015.22
2023-05-05T07:49:23.416Z,1015.25
2023-05-05T07:50:23.446Z,1015.29
2023-05-05T07:51:23.385Z,1015.26
2023-05-05T07:52:37.023Z,1015.29
2023-05-05T07:53:25.522Z,1015.23
2023-05-05T07:54:23.380Z,1015.26
2023-05-05T07:55:23.360Z,1015.26
2023-05-05T07:56:23.341Z,1015.24
2023-05-05T07:57:23.281Z,1015.23
2023-05-05T07:58:23.279Z,1015.27
2023-05-05T07:59:23.285Z,1015.26
2023-05-05T08:00:23.271Z,1015.25
2023-05-05T08:01:23.273Z,1015.24
2023-05-05T08:02:23.302Z,1015.28
2023-05-05T08:03:23.377Z,1015.30
2023-05-05T08:04:23.205Z,1015.20
2023-05-05T08:05:23.222Z,1015.23
2023-05-05T08:06:23.207Z,1015.22
2023-05-05T08:07:23.181Z,1015.22
2023-05-05T08:08:23.167Z,1015.24
2023-05-05T08:09:23.162Z,1015.22
2023-05-05T08:10:23.154Z,1015.25
2023-05-05T08:11:23.178Z,1015.25
2023-05-05T08:12:23.170Z,1015.27
2023-05-05T08:13:23.069Z,1015.24
2023-05-05T08:14:23.059Z,1015.16
2023-05-05T08:15:23.050Z,1015.21
2023-05-05T08:16:23.291Z,1015.24
2023-05-05T08:17:23.014Z,1015.24
2023-05-05T08:18:22.995Z,1015.25
2023-05-05T08:19:28.629Z,1015.24
2023-05-05T08:20:23.979Z,1015.26
2023-05-05T08:21:22.993Z,1015.27
2023-05-05T08:22:23.038Z,1015.24
2023-05-05T08:23:22.964Z,1015.26
2023-05-05T08:24:22.930Z,1015.26
2023-05-05T08:25:22.928Z,1015.31
2023-05-05T08:26:22.981Z,1015.27
2023-05-05T08:27:22.950Z,1015.27
2023-05-05T08:28:22.990Z,1015.28
2023-05-05T08:29:22.890Z,1015.27
2023-05-05T08:30:23.002Z,1015.25
2023-05-05T08:31:22.929Z,1015.27
2023-05-05T08:32:22.816Z,1015.27
2023-05-05T08:33:22.933Z,1015.27
2023-05-05T08:34:22.804Z,1015.28
2023-05-05T08:35:22.780Z,1015.27
2023-05-05T08:36:22.778Z,1015.29
2023-05-05T08:37:22.759Z,1015.29
2023-05-05T08:38:22.772Z,1015.29
2023-05-05T08:39:22.731Z,1015.30
2023-05-05T08:40:22.803Z,1015.29
2023-05-05T08:41:22.712Z,1015.34
2023-05-05T08:42:35.473Z,1015.29
2023-05-05T08:43:23.676Z,1015.28
2023-05-05T08:44:22.677Z,1015.26
2023-05-05T08:45:22.660Z,1015.28
2023-05-05T08:46:22.690Z,1015.29
2023-05-05T08:47:22.695Z,1015.26
2023-05-05T08:48:22.615Z,1015.26
2023-05-05T08:49:22.635Z,1015.22
2023-05-05T08:50:22.626Z,1015.21
2023-05-05T08:51:22.564Z,1015.27
2023-05-05T08:52:22.559Z,1015.30
2023-05-05T08:53:22.550Z,1015.27
2023-05-05T08:54:22.514Z,1015.27
2023-05-05T08:55:22.532Z,1015.22
2023-05-05T08:56:22.489Z,1015.23
2023-05-05T08:57:22.508Z,1015.24
2023-05-05T08:58:22.459Z,1015.24
2023-05-05T08:59:22.462Z,1015.23
2023-05-05T09:00:22.513Z,1015.22
2023-05-05T09:01:22.505Z,1015.26
2023-05-05T09:02:22.443Z,1015.31
2023-05-05T09:03:22.427Z,1015.21
2023-05-05T09:04:22.386Z,1015.24
2023-05-05T09:05:22.409Z,1015.14
2023-05-05T09:06:22.363Z,1015.19
2023-05-05T09:07:22.341Z,1015.20
2023-05-05T09:08:22.318Z,1015.23
2023-05-05T09:09:22.324Z,1015.24
2023-05-05T09:10:22.456Z,1015.27
2023-05-05T09:11:22.300Z,1015.27
2023-05-05T09:12:22.301Z,1015.24
2023-05-05T09:13:22.293Z,1015.29
2023-05-05T09:14:22.274Z,1015.34
2023-05-05T09:15:22.239Z,1015.28
2023-05-05T09:16:22.276Z,1015.24
2023-05-05T09:17:22.201Z,1015.14
2023-05-05T09:18:22.197Z,1015.16
2023-05-05T09:19:22.195Z,1015.13
2023-05-05T09:20:22.210Z,1015.15
2023-05-05T09:21:22.181Z,1015.16
2023-05-05T09:22:22.170Z,1015.20
2023-05-05T09:23:22.145Z,1015.24
2023-05-05T09:24:22.112Z,1015.26
2023-05-05T09:25:22.128Z,1015.25
2023-05-05T09:26:22.097Z,1015.28
2023-05-05T09:27:22.145Z,1015.25
2023-05-05T09:28:22.104Z,1015.26
2023-05-05T09:29:22.058Z,1015.29
2023-05-05T09:30:22.056Z,1015.26
2023-05-05T09:31:22.098Z,1015.23
2023-05-05T09:32:22.106Z,1015.31
2023-05-05T09:33:22.082Z,1015.32
2023-05-05T09:34:21.988Z,1015.23
2023-05-05T09:35:22.032Z,1015.25
2023-05-05T09:36:21.967Z,1015.27
2023-05-05T09:37:21.973Z,1015.33
2023-05-05T09:38:21.906Z,1015.29
2023-05-05T09:39:21.906Z,1015.30
2023-05-05T09:40:22.053Z,1015.31
2023-05-05T09:41:29.464Z,1015.24
2023-05-05T09:42:21.886Z,1015.25
2023-05-05T09:43:21.878Z,1015.24
2023-05-05T09:44:21.845Z,1015.23
2023-05-05T09:45:21.913Z,1015.26
2023-05-05T09:46:21.868Z,1015.24
2023-05-05T09:47:29.561Z,1015.21
2023-05-05T09:48:22.844Z,1015.22
2023-05-05T09:49:21.797Z,1015.18
2023-05-05T09:50:21.779Z,1015.28
2023-05-05T09:51:21.910Z,1015.30
2023-05-05T09:52:21.747Z,1015.32
2023-05-05T09:53:21.757Z,1015.33
2023-05-05T09:54:21.713Z,1015.29
2023-05-05T09:55:21.696Z,1015.31
2023-05-05T09:56:21.763Z,1015.28
2023-05-05T09:57:21.666Z,1015.24
2023-05-05T09:58:21.741Z,1015.19
2023-05-05T09:59:21.645Z,1015.20
2023-05-05T10:00:21.673Z,1015.18
2023-05-05T10:01:21.647Z,1015.22
2023-05-05T10:02:21.773Z,1015.18
2023-05-05T10:03:21.666Z,1015.17
2023-05-05T10:04:21.611Z,1015.15
2023-05-05T10:05:21.606Z,1015.15
2023-05-05T10:06:21.554Z,1015.12
2023-05-05T10:07:21.534Z,1015.12
2023-05-05T10:08:21.518Z,1015.13
2023-05-05T10:09:21.548Z,1015.15
2023-05-05T10:10:21.509Z,1015.16
2023-05-05T10:11:21.485Z,1015.16
2023-05-05T10:12:21.486Z,1015.15
2023-05-05T10:13:21.466Z,1015.15
2023-05-05T10:14:21.433Z,1015.17
2023-05-05T10:15:21.442Z,1015.15
2023-05-05T10:16:21.455Z,1015.13
2023-05-05T10:17:21.444Z,1015.14
2023-05-05T10:18:21.494Z,1015.08
2023-05-05T10:19:21.365Z,1015.12
2023-05-05T10:20:21.392Z,1015.09
2023-05-05T10:21:21.345Z,1015.03
2023-05-05T10:22:21.349Z,1015.04
2023-05-05T10:23:21.321Z,1015.05
2023-05-05T10:24:21.344Z,1015.02
2023-05-05T10:25:21.315Z,1014.98
2023-05-05T10:26:21.328Z,1014.92
2023-05-05T10:27:21.278Z,1014.90
2023-05-05T10:28:21.262Z,1014.82
2023-05-05T10:29:21.257Z,1014.83
2023-05-05T10:30:21.277Z,1014.83
2023-05-05T10:31:26.335Z,1014.78
2023-05-05T10:32:51.176Z,1014.79
2023-05-05T10:34:21.215Z,1014.75
2023-05-05T10:35:21.757Z,1014.75
2023-05-05T10:36:21.172Z,1014.65
2023-05-05T10:37:21.162Z,1014.72
2023-05-05T10:38:21.133Z,1014.73
2023-05-05T10:39:21.112Z,1014.68
2023-05-05T10:40:21.079Z,1014.65
2023-05-05T10:41:21.082Z,1014.59
2023-05-05T10:42:21.047Z,1014.56
2023-05-05T10:43:21.071Z,1014.63
2023-05-05T10:44:21.056Z,1014.58
2023-05-05T10:45:21.074Z,1014.54
2023-05-05T10:46:21.087Z,1014.59
2023-05-05T10:47:21.017Z,1014.58
2023-05-05T10:48:21.031Z,1014.58
2023-05-05T10:49:20.976Z,1014.58
2023-05-05T10:50:20.995Z,1014.60
2023-05-05T10:51:30.971Z,1014.52
2023-05-05T10:52:21.995Z,1014.55
2023-05-05T10:53:20.917Z,1014.52
2023-05-05T10:54:20.944Z,1014.50
2023-05-05T10:55:20.916Z,1014.48
2023-05-05T10:56:20.876Z,1014.49
2023-05-05T10:57:20.898Z,1014.50
2023-05-05T10:58:20.849Z,1014.54
2023-05-05T10:59:20.861Z,1014.47
2023-05-05T11:00:20.854Z,1014.50
2023-05-05T11:01:20.889Z,1014.46
2023-05-05T11:02:20.809Z,1014.43
2023-05-05T11:03:20.939Z,1014.49
2023-05-05T11:04:20.806Z,1014.40
2023-05-05T11:05:20.781Z,1014.40
2023-05-05T11:06:20.735Z,1014.39
2023-05-05T11:07:20.721Z,1014.40
2023-05-05T11:08:20.719Z,1014.41
2023-05-05T11:09:20.755Z,1014.39
2023-05-05T11:10:21.210Z,1014.34
2023-05-05T11:11:20.681Z,1014.32
2023-05-05T11:12:20.677Z,1014.31
2023-05-05T11:13:20.703Z,1014.28
2023-05-05T11:14:20.759Z,1014.27
2023-05-05T11:15:20.653Z,1014.24
2023-05-05T11:16:20.700Z,1014.27
2023-05-05T11:17:20.605Z,1014.32
2023-05-05T11:18:20.601Z,1014.32
2023-05-05T11:19:20.604Z,1014.31
2023-05-05T11:20:20.618Z,1014.25
2023-05-05T11:21:20.541Z,1014.24
2023-05-05T11:22:20.525Z,1014.27
2023-05-05T11:23:20.569Z,1014.22
2023-05-05T11:24:20.566Z,1014.28
2023-05-05T11:25:20.537Z,1014.23
2023-05-05T11:26:20.504Z,1014.25
2023-05-05T11:27:20.466Z,1014.20
2023-05-05T11:28:20.463Z,1014.22
2023-05-05T11:29:20.432Z,1014.21
2023-05-05T11:30:20.472Z,1014.16
2023-05-05T11:31:20.441Z,1014.21
2023-05-05T11:32:20.401Z,1014.22
2023-05-05T11:33:20.442Z,1014.21
2023-05-05T11:34:20.372Z,1014.21
2023-05-05T11:35:20.392Z,1014.23
2023-05-05T11:36:20.488Z,1014.19
2023-05-05T11:37:20.326Z,1014.22
2023-05-05T11:38:20.345Z,1014.23
2023-05-05T11:39:20.386Z,1014.19
2023-05-05T11:40:20.339Z,1014.22
2023-05-05T11:41:20.336Z,1014.21
2023-05-05T11:42:20.352Z,1014.25
2023-05-05T11:43:20.393Z,1014.21
2023-05-05T11:44:20.318Z,1014.27
2023-05-05T11:45:20.255Z,1014.22
2023-05-05T11:46:20.264Z,1014.22
2023-05-05T11:47:20.162Z,1014.18
2023-05-05T11:48:20.205Z,1014.18
2023-05-05T11:49:20.264Z,1014.24
2023-05-05T11:50:20.183Z,1014.27
2023-05-05T11:51:20.121Z,1014.21
2023-05-05T11:52:20.120Z,1014.25
2023-05-05T11:53:20.090Z,1014.29
2023-05-05T11:54:20.103Z,1014.30
2023-05-05T11:55:20.061Z,1014.30
2023-05-05T11:56:20.093Z,1014.28
2023-05-05T11:57:20.118Z,1014.26
2023-05-05T11:58:20.290Z,1014.31
2023-05-05T11:59:20.114Z,1014.29
2023-05-05T12:00:20.171Z,1014.35
2023-05-05T12:01:19.985Z,1014.37
2023-05-05T12:02:20.020Z,1014.37
2023-05-05T12:03:20.065Z,1014.38
2023-05-05T12:04:19.987Z,1014.41
2023-05-05T12:05:19.926Z,1014.41
2023-05-05T12:06:19.953Z,1014.45